Station Historical Data
Daily Summary for September 17, 2017 Units:  English    Metric   Both
« Previous Day
Next Day »
Daily Weekly Monthly Yearly Custom
  High: Low: Average:
Temperature: 87.1 °F 65.3 °F 74.1 °F
Dew Point: 70.3 °F 62.9 °F 65.4 °F
Humidity: 93% 48% 76%
Wind Speed: 9.0mph 1.0mph 4mph
Wind Gust: 9.0mph - -
Wind- - WSW
Pressure: 30.15 in 30.04 in -
Precipitation: 0.00 in    
Historical Graphs
 
 
Tabular Data for September 17, 2017
Time Temperature Dew Point Pressure Wind Wind Speed Wind Gust Humidity Rainfall Rate (Hourly) solar Conditions
00:00 68.9 °F 65.5 °F 30.10 in West 3.0 mph 3.0 mph 89% 0.00 in WeatherDisplay:10.37 W/m2 CLR
00:05 68.9 °F 65.5 °F 30.11 in West 3.0 mph 3.0 mph 89% 0.00 in WeatherDisplay:10.37 W/m2 CLR
00:10 68.8 °F 65.4 °F 30.11 in West 3.0 mph 3.0 mph 89% 0.00 in WeatherDisplay:10.37 W/m2 CLR
00:15 68.7 °F 65.3 °F 30.11 in West 3.0 mph 3.0 mph 89% 0.00 in WeatherDisplay:10.37 W/m2 CLR
00:20 68.6 °F 65.2 °F 30.10 in West 3.0 mph 3.0 mph 89% 0.00 in WeatherDisplay:10.37 W/m2 CLR
00:25 68.6 °F 65.2 °F 30.10 in West 3.0 mph 3.0 mph 89% 0.00 in WeatherDisplay:10.37 W/m2 CLR
00:30 68.5 °F 65.2 °F 30.10 in West 3.0 mph 3.0 mph 89% 0.00 in WeatherDisplay:10.37 W/m2 CLR
00:35 68.5 °F 65.1 °F 30.10 in West 3.0 mph 3.0 mph 89% 0.00 in WeatherDisplay:10.37 W/m2 CLR
00:40 68.4 °F 65.0 °F 30.10 in West 3.0 mph 3.0 mph 89% 0.00 in WeatherDisplay:10.37 W/m2 CLR
00:45 68.3 °F 65.0 °F 30.10 in West 3.0 mph 3.0 mph 89% 0.00 in WeatherDisplay:10.37 W/m2 CLR
00:50 68.3 °F 64.9 °F 30.10 in West 3.0 mph 3.0 mph 89% 0.00 in WeatherDisplay:10.37 W/m2 CLR
00:55 68.2 °F 65.2 °F 30.10 in West 3.0 mph 3.0 mph 90% 0.00 in WeatherDisplay:10.37 W/m2 CLR
01:00 68.1 °F 65.1 °F 30.10 in West 3.0 mph 3.0 mph 90% 0.00 in WeatherDisplay:10.37 W/m2 CLR
01:10 68.0 °F 65.0 °F 30.10 in West 3.0 mph 3.0 mph 90% 0.00 in WeatherDisplay:10.37 W/m2 CLR
01:15 67.9 °F 64.9 °F 30.10 in West 3.0 mph 3.0 mph 90% 0.00 in WeatherDisplay:10.37 W/m2 CLR
01:20 67.7 °F 64.7 °F 30.09 in West 3.0 mph 3.0 mph 90% 0.00 in WeatherDisplay:10.37 W/m2 CLR
01:25 67.7 °F 64.7 °F 30.10 in West 3.0 mph 3.0 mph 90% 0.00 in WeatherDisplay:10.37 W/m2 CLR
01:30 67.7 °F 64.6 °F 30.09 in West 3.0 mph 3.0 mph 90% 0.00 in WeatherDisplay:10.37 W/m2 CLR
01:35 67.6 °F 64.6 °F 30.09 in West 3.0 mph 3.0 mph 90% 0.00 in WeatherDisplay:10.37 W/m2 CLR
01:40 67.6 °F 64.6 °F 30.09 in West 3.0 mph 3.0 mph 90% 0.00 in WeatherDisplay:10.37 W/m2 CLR
01:45 67.6 °F 64.9 °F 30.09 in West 3.0 mph 3.0 mph 91% 0.00 in WeatherDisplay:10.37 W/m2 CLR
01:50 67.6 °F 64.9 °F 30.09 in West 3.0 mph 3.0 mph 91% 0.00 in WeatherDisplay:10.37 W/m2 CLR
01:55 67.5 °F 64.8 °F 30.09 in West 3.0 mph 3.0 mph 91% 0.00 in WeatherDisplay:10.37 W/m2 CLR
02:00 67.5 °F 64.8 °F 30.09 in West 3.0 mph 3.0 mph 91% 0.00 in WeatherDisplay:10.37 W/m2 CLR
02:05 67.4 °F 64.4 °F 30.09 in West 3.0 mph 3.0 mph 90% 0.00 in WeatherDisplay:10.37 W/m2 CLR
02:10 67.3 °F 64.3 °F 30.09 in West 3.0 mph 3.0 mph 90% 0.00 in WeatherDisplay:10.37 W/m2 CLR
02:15 67.2 °F 64.5 °F 30.09 in WNW 3.0 mph 3.0 mph 91% 0.00 in WeatherDisplay:10.37 W/m2 CLR
02:20 67.1 °F 64.4 °F 30.10 in WNW 3.0 mph 3.0 mph 91% 0.00 in WeatherDisplay:10.37 W/m2 CLR
02:25 67.0 °F 64.3 °F 30.10 in WNW 3.0 mph 3.0 mph 91% 0.00 in WeatherDisplay:10.37 W/m2 CLR
02:30 67.0 °F 64.3 °F 30.09 in WNW 3.0 mph 3.0 mph 91% 0.00 in WeatherDisplay:10.37 W/m2 CLR
02:35 66.9 °F 64.2 °F 30.09 in WNW 3.0 mph 3.0 mph 91% 0.00 in WeatherDisplay:10.37 W/m2 CLR
02:40 66.9 °F 64.2 °F 30.09 in WNW 3.0 mph 3.0 mph 91% 0.00 in WeatherDisplay:10.37 W/m2 CLR
02:45 66.8 °F 64.1 °F 30.09 in WNW 3.0 mph 3.0 mph 91% 0.00 in WeatherDisplay:10.37 W/m2 CLR
02:50 66.7 °F 64.0 °F 30.09 in WNW 3.0 mph 3.0 mph 91% 0.00 in WeatherDisplay:10.37 W/m2 CLR
02:55 66.6 °F 63.9 °F 30.09 in WNW 3.0 mph 3.0 mph 91% 0.00 in WeatherDisplay:10.37 W/m2 CLR
03:00 66.5 °F 63.8 °F 30.09 in WNW 3.0 mph 3.0 mph 91% 0.00 in WeatherDisplay:10.37 W/m2 CLR
03:05 66.5 °F 63.8 °F 30.09 in WNW 3.0 mph 3.0 mph 91% 0.00 in WeatherDisplay:10.37 W/m2 CLR
03:15 66.4 °F 63.7 °F 30.09 in WNW 3.0 mph 3.0 mph 91% 0.00 in WeatherDisplay:10.37 W/m2 CLR
03:20 66.4 °F 63.7 °F 30.08 in WNW 3.0 mph 3.0 mph 91% 0.00 in WeatherDisplay:10.37 W/m2 CLR
03:25 66.4 °F 64.0 °F 30.08 in WNW 3.0 mph 3.0 mph 92% 0.00 in WeatherDisplay:10.37 W/m2 CLR
03:30 66.4 °F 64.0 °F 30.08 in WNW 3.0 mph 3.0 mph 92% 0.00 in WeatherDisplay:10.37 W/m2 CLR
03:35 66.3 °F 63.9 °F 30.08 in WNW 3.0 mph 3.0 mph 92% 0.00 in WeatherDisplay:10.37 W/m2 CLR
03:40 66.3 °F 63.9 °F 30.08 in WNW 3.0 mph 3.0 mph 92% 0.00 in WeatherDisplay:10.37 W/m2 CLR
03:45 66.3 °F 63.9 °F 30.08 in WNW 3.0 mph 3.0 mph 92% 0.00 in WeatherDisplay:10.37 W/m2 CLR
03:50 66.2 °F 63.8 °F 30.08 in WNW 3.0 mph 3.0 mph 92% 0.00 in WeatherDisplay:10.37 W/m2 CLR
03:55 66.2 °F 63.8 °F 30.08 in WNW 3.0 mph 3.0 mph 92% 0.00 in WeatherDisplay:10.37 W/m2 CLR
04:00 66.2 °F 63.8 °F 30.08 in WNW 3.0 mph 3.0 mph 92% 0.00 in WeatherDisplay:10.37 W/m2 CLR
04:05 66.0 °F 63.6 °F 30.09 in WNW 3.0 mph 3.0 mph 92% 0.00 in WeatherDisplay:10.37 W/m2 CLR
04:10 66.0 °F 63.6 °F 30.08 in WNW 3.0 mph 3.0 mph 92% 0.00 in WeatherDisplay:10.37 W/m2 CLR
04:15 65.9 °F 63.5 °F 30.08 in WNW 3.0 mph 3.0 mph 92% 0.00 in WeatherDisplay:10.37 W/m2 FEW
04:20 65.8 °F 63.4 °F 30.08 in WNW 3.0 mph 3.0 mph 92% 0.00 in WeatherDisplay:10.37 W/m2 FEW
04:25 65.7 °F 63.3 °F 30.08 in WNW 3.0 mph 3.0 mph 92% 0.00 in WeatherDisplay:10.37 W/m2 FEW
04:30 65.6 °F 63.2 °F 30.09 in WNW 3.0 mph 3.0 mph 92% 0.00 in WeatherDisplay:10.37 W/m2 FEW
04:40 65.5 °F 63.1 °F 30.08 in WNW 3.0 mph 3.0 mph 92% 0.00 in WeatherDisplay:10.37 W/m2 FEW
04:45 65.5 °F 63.1 °F 30.08 in WNW 3.0 mph 3.0 mph 92% 0.00 in WeatherDisplay:10.37 W/m2 CLR
04:50 65.6 °F 63.2 °F 30.08 in WNW 3.0 mph 3.0 mph 92% 0.00 in WeatherDisplay:10.37 W/m2 CLR
04:55 65.6 °F 63.2 °F 30.08 in WNW 3.0 mph 3.0 mph 92% 0.00 in WeatherDisplay:10.37 W/m2 CLR
05:00 65.7 °F 63.6 °F 30.08 in WNW 3.0 mph 3.0 mph 93% 0.00 in WeatherDisplay:10.37 W/m2 CLR
05:05 65.9 °F 63.8 °F 30.08 in WNW 3.0 mph 3.0 mph 93% 0.00 in WeatherDisplay:10.37 W/m2 CLR
05:10 65.9 °F 63.9 °F 30.08 in WNW 3.0 mph 3.0 mph 93% 0.00 in WeatherDisplay:10.37 W/m2 CLR
05:15 65.9 °F 63.8 °F 30.08 in WNW 3.0 mph 3.0 mph 93% 0.00 in WeatherDisplay:10.37 W/m2 CLR
05:20 65.7 °F 63.3 °F 30.08 in WNW 3.0 mph 3.0 mph 92% 0.00 in WeatherDisplay:10.37 W/m2 CLR
05:25 65.5 °F 63.1 °F 30.08 in WNW 3.0 mph 3.0 mph 92% 0.00 in WeatherDisplay:10.37 W/m2 CLR
05:30 65.5 °F 63.1 °F 30.09 in WNW 3.0 mph 3.0 mph 92% 0.00 in WeatherDisplay:10.37 W/m2 CLR
05:35 65.6 °F 63.5 °F 30.08 in WNW 3.0 mph 3.0 mph 93% 0.00 in WeatherDisplay:10.37 W/m2 CLR
05:40 65.7 °F 63.6 °F 30.08 in WNW 3.0 mph 3.0 mph 93% 0.00 in WeatherDisplay:10.37 W/m2 CLR
05:45 65.8 °F 63.7 °F 30.09 in WNW 3.0 mph 3.0 mph 93% 0.00 in WeatherDisplay:10.37 W/m2 CLR
05:50 65.8 °F 63.7 °F 30.09 in WNW 3.0 mph 3.0 mph 93% 0.00 in WeatherDisplay:10.37 W/m2 CLR
05:55 65.6 °F 63.2 °F 30.09 in WNW 3.0 mph 3.0 mph 92% 0.00 in WeatherDisplay:10.37 W/m2 CLR
06:00 65.4 °F 63.0 °F 30.09 in WNW 3.0 mph 3.0 mph 92% 0.00 in WeatherDisplay:10.37 W/m2 CLR
06:05 65.3 °F 62.9 °F 30.09 in WNW 3.0 mph 3.0 mph 92% 0.00 in WeatherDisplay:10.37 W/m2 CLR
06:10 65.5 °F 63.4 °F 30.09 in WNW 3.0 mph 3.0 mph 93% 0.00 in WeatherDisplay:10.37 W/m2 CLR
06:15 65.4 °F 63.4 °F 30.09 in WNW 3.0 mph 3.0 mph 93% 0.00 in WeatherDisplay:10.37 W/m2 CLR
06:20 65.4 °F 63.3 °F 30.10 in WNW 3.0 mph 3.0 mph 93% 0.00 in WeatherDisplay:10.37 W/m2 CLR
06:25 65.3 °F 63.2 °F 30.10 in WNW 3.0 mph 3.0 mph 93% 0.00 in WeatherDisplay:10.37 W/m2 CLR
06:30 65.3 °F 63.2 °F 30.10 in WNW 3.0 mph 3.0 mph 93% 0.00 in WeatherDisplay:10.37 W/m2 CLR
06:40 65.5 °F 63.4 °F 30.10 in WNW 3.0 mph 3.0 mph 93% 0.00 in WeatherDisplay:10.37 W/m2 CLR
06:45 65.5 °F 63.4 °F 30.10 in WNW 3.0 mph 3.0 mph 93% 0.00 in WeatherDisplay:10.37 W/m2 CLR
06:50 65.5 °F 63.4 °F 30.10 in WNW 3.0 mph 3.0 mph 93% 0.00 in WeatherDisplay:10.37 W/m2 CLR
06:55 65.5 °F 63.4 °F 30.11 in WNW 3.0 mph 3.0 mph 93% 0.00 in WeatherDisplay:10.37 W/m2 CLR
07:00 65.4 °F 63.3 °F 30.11 in WNW 3.0 mph 3.0 mph 93% 0.00 in WeatherDisplay:10.37 W/m2 CLR
07:10 65.4 °F 63.3 °F 30.11 in WNW 3.0 mph 3.0 mph 93% 0.00 in WeatherDisplay:10.37 W/m2 CLR
07:15 65.4 °F 63.3 °F 30.11 in WNW 3.0 mph 3.0 mph 93% 0.00 in WeatherDisplay:10.37 W/m2 FEW
07:20 65.4 °F 63.3 °F 30.11 in WNW 3.0 mph 3.0 mph 93% 0.00 in WeatherDisplay:10.37 W/m2 FEW
07:25 65.5 °F 63.4 °F 30.11 in WNW 3.0 mph 3.0 mph 93% 0.00 in WeatherDisplay:10.37 W/m2 FEW
07:30 65.4 °F 63.4 °F 30.12 in WNW 3.0 mph 3.0 mph 93% 0.00 in WeatherDisplay:10.37 W/m2 FEW
07:35 65.5 °F 63.4 °F 30.12 in WNW 3.0 mph 3.0 mph 93% 0.00 in WeatherDisplay:10.37 W/m2 FEW
07:40 65.5 °F 63.4 °F 30.12 in WNW 3.0 mph 3.0 mph 93% 0.00 in WeatherDisplay:10.37 W/m2 FEW
07:45 65.5 °F 63.4 °F 30.12 in WNW 3.0 mph 3.0 mph 93% 0.00 in WeatherDisplay:10.37 W/m2 FEW
07:50 65.5 °F 63.4 °F 30.13 in WNW 3.0 mph 3.0 mph 93% 0.00 in WeatherDisplay:10.37 W/m2 FEW
07:55 65.7 °F 63.6 °F 30.13 in WNW 3.0 mph 3.0 mph 93% 0.00 in WeatherDisplay:10.37 W/m2 FEW
08:10 66.2 °F 64.1 °F 30.13 in WNW 3.0 mph 3.0 mph 93% 0.00 in WeatherDisplay:10.37 W/m2 FEW
08:15 66.2 °F 64.1 °F 30.13 in NW 2.0 mph 3.0 mph 93% 0.00 in WeatherDisplay:10.37 W/m2 BKN
08:20 66.4 °F 64.3 °F 30.13 in NNW 2.0 mph 2.0 mph 93% 0.00 in WeatherDisplay:10.37 W/m2 BKN
08:25 66.5 °F 64.4 °F 30.13 in NNW 2.0 mph 2.0 mph 93% 0.00 in WeatherDisplay:10.37 W/m2 BKN
08:30 66.7 °F 64.6 °F 30.13 in NNW 2.0 mph 2.0 mph 93% 0.00 in WeatherDisplay:10.37 W/m2 BKN
08:35 67.0 °F 64.9 °F 30.13 in NNW 2.0 mph 2.0 mph 93% 0.00 in WeatherDisplay:10.37 W/m2 BKN
08:40 67.4 °F 65.3 °F 30.13 in NNW 2.0 mph 2.0 mph 93% 0.00 in WeatherDisplay:10.37 W/m2 BKN
08:45 67.7 °F 65.6 °F 30.13 in NNW 2.0 mph 2.0 mph 93% 0.00 in WeatherDisplay:10.37 W/m2 BKN
08:50 68.1 °F 66.0 °F 30.13 in NNW 2.0 mph 2.0 mph 93% 0.00 in WeatherDisplay:10.37 W/m2 BKN
08:55 68.1 °F 65.7 °F 30.13 in NNW 2.0 mph 2.0 mph 92% 0.00 in WeatherDisplay:10.37 W/m2 BKN
09:00 68.5 °F 65.7 °F 30.13 in NNW 2.0 mph 2.0 mph 91% 0.00 in WeatherDisplay:10.37 W/m2 BKN
09:05 69.1 °F 66.1 °F 30.13 in NNW 2.0 mph 2.0 mph 90% 0.00 in WeatherDisplay:10.37 W/m2 BKN
09:15 70.0 °F 66.6 °F 30.14 in NNW 2.0 mph 2.0 mph 89% 0.00 in WeatherDisplay:10.37 W/m2 BKN
09:20 70.3 °F 66.6 °F 30.14 in NNW 2.0 mph 2.0 mph 88% 0.00 in WeatherDisplay:10.37 W/m2 BKN
09:30 71.1 °F 67.0 °F 30.14 in NNW 2.0 mph 2.0 mph 87% 0.00 in WeatherDisplay:10.37 W/m2 BKN
09:40 71.6 °F 66.5 °F 30.14 in NNW 2.0 mph 2.0 mph 84% 0.00 in WeatherDisplay:10.37 W/m2 BKN
09:45 72.0 °F 66.5 °F 30.14 in NNW 2.0 mph 2.0 mph 83% 0.00 in WeatherDisplay:10.37 W/m2 BKN
09:50 72.3 °F 66.8 °F 30.14 in NNW 2.0 mph 2.0 mph 83% 0.00 in WeatherDisplay:10.37 W/m2 BKN
09:55 72.7 °F 67.2 °F 30.14 in NNW 2.0 mph 2.0 mph 83% 0.00 in WeatherDisplay:10.37 W/m2 BKN
10:00 73.0 °F 66.9 °F 30.14 in NNW 2.0 mph 2.0 mph 81% 0.00 in WeatherDisplay:10.37 W/m2 BKN
10:05 73.3 °F 66.8 °F 30.14 in NNW 2.0 mph 2.0 mph 80% 0.00 in WeatherDisplay:10.37 W/m2 BKN
10:10 73.8 °F 67.6 °F 30.14 in NNW 2.0 mph 2.0 mph 81% 0.00 in WeatherDisplay:10.37 W/m2 BKN
10:15 74.3 °F 67.4 °F 30.14 in NE 3.0 mph 3.0 mph 79% 0.00 in WeatherDisplay:10.37 W/m2 BKN
10:25 75.3 °F 68.0 °F 30.15 in ENE 3.0 mph 3.0 mph 78% 0.00 in WeatherDisplay:10.37 W/m2 BKN
10:30 75.8 °F 68.4 °F 30.15 in ENE 3.0 mph 3.0 mph 78% 0.00 in WeatherDisplay:10.37 W/m2 BKN
10:35 76.3 °F 67.7 °F 30.15 in ENE 3.0 mph 3.0 mph 75% 0.00 in WeatherDisplay:10.37 W/m2 BKN
10:40 76.8 °F 68.6 °F 30.14 in ENE 3.0 mph 3.0 mph 76% 0.00 in WeatherDisplay:10.37 W/m2 BKN
10:45 77.5 °F 68.1 °F 30.14 in ENE 3.0 mph 3.0 mph 73% 0.00 in WeatherDisplay:10.37 W/m2 BKN
10:50 78.4 °F 69.0 °F 30.14 in ENE 3.0 mph 3.0 mph 73% 0.00 in WeatherDisplay:10.37 W/m2 BKN
10:55 79.1 °F 68.0 °F 30.15 in ENE 3.0 mph 3.0 mph 69% 0.00 in WeatherDisplay:10.37 W/m2 BKN
11:00 79.4 °F 67.9 °F 30.15 in ENE 3.0 mph 3.0 mph 68% 0.00 in WeatherDisplay:10.37 W/m2 BKN
11:05 80.1 °F 68.1 °F 30.14 in ENE 3.0 mph 3.0 mph 67% 0.00 in WeatherDisplay:10.37 W/m2 BKN
11:10 80.1 °F 69.0 °F 30.14 in ENE 3.0 mph 3.0 mph 69% 0.00 in WeatherDisplay:10.37 W/m2 BKN
11:15 80.7 °F 69.1 °F 30.14 in East 1.0 mph 3.0 mph 68% 0.00 in WeatherDisplay:10.37 W/m2 FEW
11:20 81.2 °F 69.6 °F 30.14 in ESE 1.0 mph 1.0 mph 68% 0.00 in WeatherDisplay:10.37 W/m2 FEW
11:30 82.4 °F 69.0 °F 30.14 in ESE 1.0 mph 1.0 mph 64% 0.00 in WeatherDisplay:10.37 W/m2 FEW
11:35 82.8 °F 68.9 °F 30.14 in ESE 1.0 mph 1.0 mph 63% 0.00 in WeatherDisplay:10.37 W/m2 FEW
11:40 83.0 °F 67.6 °F 30.14 in ESE 1.0 mph 1.0 mph 60% 0.00 in WeatherDisplay:10.37 W/m2 FEW
11:45 82.9 °F 67.6 °F 30.14 in ESE 1.0 mph 1.0 mph 60% 0.00 in WeatherDisplay:10.37 W/m2 FEW
11:50 83.2 °F 67.9 °F 30.14 in ESE 1.0 mph 1.0 mph 60% 0.00 in WeatherDisplay:10.37 W/m2 FEW
12:00 83.9 °F 68.5 °F 30.13 in ESE 1.0 mph 1.0 mph 60% 0.00 in WeatherDisplay:10.37 W/m2 FEW
12:05 84.1 °F 70.1 °F 30.13 in ESE 1.0 mph 1.0 mph 63% 0.00 in WeatherDisplay:10.37 W/m2 FEW
12:10 84.1 °F 69.7 °F 30.14 in ESE 1.0 mph 1.0 mph 62% 0.00 in WeatherDisplay:10.37 W/m2 FEW
12:15 83.9 °F 69.9 °F 30.13 in ESE 3.0 mph 3.0 mph 63% 0.00 in WeatherDisplay:10.37 W/m2 FEW
12:20 82.8 °F 69.8 °F 30.13 in ESE 3.0 mph 3.0 mph 65% 0.00 in WeatherDisplay:10.37 W/m2 FEW
12:25 82.4 °F 70.3 °F 30.13 in ESE 3.0 mph 3.0 mph 67% 0.00 in WeatherDisplay:10.37 W/m2 FEW
12:30 83.2 °F 69.2 °F 30.13 in ESE 3.0 mph 3.0 mph 63% 0.00 in WeatherDisplay:10.37 W/m2 FEW
12:35 83.5 °F 69.2 °F 30.13 in ESE 3.0 mph 3.0 mph 62% 0.00 in WeatherDisplay:10.37 W/m2 FEW
12:40 84.1 °F 69.2 °F 30.13 in ESE 3.0 mph 3.0 mph 61% 0.00 in WeatherDisplay:10.37 W/m2 FEW
12:45 84.7 °F 68.8 °F 30.13 in ESE 3.0 mph 3.0 mph 59% 0.00 in WeatherDisplay:10.37 W/m2 FEW
12:50 84.3 °F 68.4 °F 30.13 in ESE 3.0 mph 3.0 mph 59% 0.00 in WeatherDisplay:10.37 W/m2 FEW
12:55 84.1 °F 68.7 °F 30.12 in ESE 3.0 mph 3.0 mph 60% 0.00 in WeatherDisplay:10.37 W/m2 FEW
13:00 84.3 °F 68.9 °F 30.12 in ESE 3.0 mph 3.0 mph 60% 0.00 in WeatherDisplay:10.37 W/m2 FEW
13:05 84.7 °F 69.3 °F 30.12 in ESE 3.0 mph 3.0 mph 60% 0.00 in WeatherDisplay:10.37 W/m2 FEW
13:10 84.8 °F 66.8 °F 30.12 in ESE 3.0 mph 3.0 mph 55% 0.00 in WeatherDisplay:10.37 W/m2 FEW
13:15 85.2 °F 67.7 °F 30.11 in North 5.0 mph 5.0 mph 56% 0.00 in WeatherDisplay:10.37 W/m2 BKN
13:20 84.3 °F 65.3 °F 30.11 in NNW 5.0 mph 5.0 mph 53% 0.00 in WeatherDisplay:10.37 W/m2 BKN
13:25 83.9 °F 67.6 °F 30.11 in NNW 5.0 mph 5.0 mph 58% 0.00 in WeatherDisplay:10.37 W/m2 BKN
13:30 83.5 °F 68.7 °F 30.11 in NNW 5.0 mph 5.0 mph 61% 0.00 in WeatherDisplay:10.37 W/m2 BKN
13:40 83.2 °F 65.8 °F 30.10 in NNW 5.0 mph 5.0 mph 56% 0.00 in WeatherDisplay:10.37 W/m2 BKN
13:45 83.9 °F 67.6 °F 30.10 in NNW 5.0 mph 5.0 mph 58% 0.00 in WeatherDisplay:10.37 W/m2 BKN
13:50 84.7 °F 67.8 °F 30.10 in NNW 5.0 mph 5.0 mph 57% 0.00 in WeatherDisplay:10.37 W/m2 BKN
13:55 85.9 °F 67.4 °F 30.10 in NNW 5.0 mph 5.0 mph 54% 0.00 in WeatherDisplay:10.37 W/m2 BKN
14:00 86.9 °F 68.3 °F 30.10 in NNW 5.0 mph 5.0 mph 54% 0.00 in WeatherDisplay:10.37 W/m2 BKN
14:05 86.6 °F 66.9 °F 30.09 in NNW 5.0 mph 5.0 mph 52% 0.00 in WeatherDisplay:10.37 W/m2 BKN
14:10 86.8 °F 67.1 °F 30.09 in NNW 5.0 mph 5.0 mph 52% 0.00 in WeatherDisplay:10.37 W/m2 BKN
14:15 87.1 °F 67.3 °F 30.09 in WNW 5.0 mph 5.0 mph 52% 0.00 in WeatherDisplay:10.37 W/m2 SCT
14:20 86.7 °F 68.6 °F 30.09 in West 5.0 mph 5.0 mph 55% 0.00 in WeatherDisplay:10.37 W/m2 SCT
14:25 86.5 °F 66.2 °F 30.08 in West 5.0 mph 5.0 mph 51% 0.00 in WeatherDisplay:10.37 W/m2 SCT
14:30 86.5 °F 66.2 °F 30.08 in West 5.0 mph 5.0 mph 51% 0.00 in WeatherDisplay:10.37 W/m2 SCT
14:35 86.4 °F 67.2 °F 30.08 in West 5.0 mph 5.0 mph 53% 0.00 in WeatherDisplay:10.37 W/m2 SCT
14:40 86.5 °F 66.2 °F 30.08 in West 5.0 mph 5.0 mph 51% 0.00 in WeatherDisplay:10.37 W/m2 SCT
14:45 86.6 °F 65.7 °F 30.08 in West 5.0 mph 5.0 mph 50% 0.00 in WeatherDisplay:10.37 W/m2 SCT
14:55 86.5 °F 65.6 °F 30.07 in West 5.0 mph 5.0 mph 50% 0.00 in WeatherDisplay:10.37 W/m2 SCT
15:00 86.1 °F 65.2 °F 30.07 in West 5.0 mph 5.0 mph 50% 0.00 in WeatherDisplay:10.37 W/m2 SCT
15:05 85.7 °F 64.9 °F 30.07 in West 5.0 mph 5.0 mph 50% 0.00 in WeatherDisplay:10.37 W/m2 SCT
15:10 85.6 °F 64.3 °F 30.07 in West 5.0 mph 5.0 mph 49% 0.00 in WeatherDisplay:10.37 W/m2 SCT
15:15 85.2 °F 63.3 °F 30.07 in West 5.0 mph 5.0 mph 48% 0.00 in WeatherDisplay:10.37 W/m2 SCT
15:20 84.7 °F 64.0 °F 30.07 in West 5.0 mph 5.0 mph 50% 0.00 in WeatherDisplay:10.37 W/m2 SCT
15:25 84.4 °F 64.9 °F 30.07 in West 5.0 mph 5.0 mph 52% 0.00 in WeatherDisplay:10.37 W/m2 SCT
15:30 84.5 °F 64.9 °F 30.07 in West 5.0 mph 5.0 mph 52% 0.00 in WeatherDisplay:10.37 W/m2 SCT
15:40 84.3 °F 64.2 °F 30.06 in West 5.0 mph 5.0 mph 51% 0.00 in WeatherDisplay:10.37 W/m2 SCT
15:45 84.2 °F 64.1 °F 30.06 in West 5.0 mph 5.0 mph 51% 0.00 in WeatherDisplay:10.37 W/m2 SCT
15:50 84.1 °F 64.6 °F 30.06 in West 5.0 mph 5.0 mph 52% 0.00 in WeatherDisplay:10.37 W/m2 SCT
15:55 84.0 °F 63.9 °F 30.06 in West 5.0 mph 5.0 mph 51% 0.00 in WeatherDisplay:10.37 W/m2 SCT
16:00 84.1 °F 64.6 °F 30.06 in West 5.0 mph 5.0 mph 52% 0.00 in WeatherDisplay:10.37 W/m2 SCT
16:05 84.3 °F 65.3 °F 30.06 in West 5.0 mph 5.0 mph 53% 0.00 in WeatherDisplay:10.37 W/m2 SCT
16:10 84.4 °F 66.4 °F 30.05 in West 5.0 mph 5.0 mph 55% 0.00 in WeatherDisplay:10.37 W/m2 SCT
16:15 84.5 °F 65.5 °F 30.05 in WNW 9.0 mph 9.0 mph 53% 0.00 in WeatherDisplay:10.37 W/m2 FEW
16:20 84.5 °F 66.0 °F 30.05 in WNW 9.0 mph 9.0 mph 54% 0.00 in WeatherDisplay:10.37 W/m2 FEW
16:25 84.8 °F 65.8 °F 30.05 in WNW 9.0 mph 9.0 mph 53% 0.00 in WeatherDisplay:10.37 W/m2 FEW
16:30 84.9 °F 66.4 °F 30.05 in WNW 9.0 mph 9.0 mph 54% 0.00 in WeatherDisplay:10.37 W/m2 FEW
16:40 84.6 °F 66.1 °F 30.05 in WNW 9.0 mph 9.0 mph 54% 0.00 in WeatherDisplay:10.37 W/m2 FEW
16:45 84.3 °F 65.8 °F 30.05 in WNW 9.0 mph 9.0 mph 54% 0.00 in WeatherDisplay:10.37 W/m2 FEW
16:50 84.1 °F 65.1 °F 30.05 in WNW 9.0 mph 9.0 mph 53% 0.00 in WeatherDisplay:10.37 W/m2 FEW
16:55 83.9 °F 65.5 °F 30.05 in WNW 9.0 mph 9.0 mph 54% 0.00 in WeatherDisplay:10.37 W/m2 FEW
17:00 83.6 °F 65.7 °F 30.05 in WNW 9.0 mph 9.0 mph 55% 0.00 in WeatherDisplay:10.37 W/m2 FEW
17:10 83.3 °F 63.8 °F 30.05 in WNW 9.0 mph 9.0 mph 52% 0.00 in WeatherDisplay:10.37 W/m2 FEW
17:15 83.2 °F 64.3 °F 30.05 in NNW 6.0 mph 9.0 mph 53% 0.00 in WeatherDisplay:10.37 W/m2 SCT
17:20 83.1 °F 65.8 °F 30.05 in NNE 6.0 mph 6.0 mph 56% 0.00 in WeatherDisplay:10.37 W/m2 SCT
17:25 82.7 °F 64.3 °F 30.05 in NNE 6.0 mph 6.0 mph 54% 0.00 in WeatherDisplay:10.37 W/m2 SCT
17:30 82.5 °F 64.2 °F 30.05 in NNE 6.0 mph 6.0 mph 54% 0.00 in WeatherDisplay:10.37 W/m2 SCT
17:35 82.5 °F 65.2 °F 30.04 in NNE 6.0 mph 6.0 mph 56% 0.00 in WeatherDisplay:10.37 W/m2 SCT
17:40 82.4 °F 64.6 °F 30.04 in NNE 6.0 mph 6.0 mph 55% 0.00 in WeatherDisplay:10.37 W/m2 SCT
17:45 82.1 °F 64.4 °F 30.04 in NNE 6.0 mph 6.0 mph 55% 0.00 in WeatherDisplay:10.37 W/m2 SCT
17:50 82.0 °F 65.8 °F 30.04 in NNE 6.0 mph 6.0 mph 58% 0.00 in WeatherDisplay:10.37 W/m2 SCT
17:55 81.5 °F 65.3 °F 30.04 in NNE 6.0 mph 6.0 mph 58% 0.00 in WeatherDisplay:10.37 W/m2 SCT
18:00 81.2 °F 64.5 °F 30.04 in NNE 6.0 mph 6.0 mph 57% 0.00 in WeatherDisplay:10.37 W/m2 SCT
18:05 81.0 °F 65.8 °F 30.04 in NNE 6.0 mph 6.0 mph 60% 0.00 in WeatherDisplay:10.37 W/m2 SCT
18:10 80.5 °F 66.3 °F 30.04 in NNE 6.0 mph 6.0 mph 62% 0.00 in WeatherDisplay:10.37 W/m2 SCT
18:15 80.1 °F 66.4 °F 30.04 in NNE 7.0 mph 7.0 mph 63% 0.00 in WeatherDisplay:10.37 W/m2 FEW
18:20 79.9 °F 66.2 °F 30.04 in NNE 7.0 mph 7.0 mph 63% 0.00 in WeatherDisplay:10.37 W/m2 FEW
18:25 79.7 °F 65.1 °F 30.04 in NNE 7.0 mph 7.0 mph 61% 0.00 in WeatherDisplay:10.37 W/m2 FEW
18:30 79.5 °F 64.9 °F 30.04 in NNE 7.0 mph 7.0 mph 61% 0.00 in WeatherDisplay:10.37 W/m2 FEW
18:35 79.3 °F 64.2 °F 30.04 in NNE 7.0 mph 7.0 mph 60% 0.00 in WeatherDisplay:10.37 W/m2 FEW
18:40 79.1 °F 64.5 °F 30.04 in NNE 7.0 mph 7.0 mph 61% 0.00 in WeatherDisplay:10.37 W/m2 FEW
18:45 78.8 °F 65.1 °F 30.04 in NNE 7.0 mph 7.0 mph 63% 0.00 in WeatherDisplay:10.37 W/m2 FEW
18:55 78.3 °F 65.1 °F 30.04 in NNE 7.0 mph 7.0 mph 64% 0.00 in WeatherDisplay:10.37 W/m2 FEW
19:00 78.1 °F 64.9 °F 30.04 in NNE 7.0 mph 7.0 mph 64% 0.00 in WeatherDisplay:10.37 W/m2 FEW
19:05 77.8 °F 65.5 °F 30.05 in NNE 7.0 mph 7.0 mph 66% 0.00 in WeatherDisplay:10.37 W/m2 FEW
19:10 77.4 °F 65.6 °F 30.05 in NNE 7.0 mph 7.0 mph 67% 0.00 in WeatherDisplay:10.37 W/m2 FEW
19:15 77.2 °F 65.8 °F 30.05 in North 5.0 mph 7.0 mph 68% 0.00 in WeatherDisplay:10.37 W/m2 FEW
19:20 76.8 °F 65.5 °F 30.05 in NNW 5.0 mph 5.0 mph 68% 0.00 in WeatherDisplay:10.37 W/m2 FEW
19:25 76.6 °F 65.2 °F 30.05 in NNW 5.0 mph 5.0 mph 68% 0.00 in WeatherDisplay:10.37 W/m2 FEW
19:30 76.5 °F 65.6 °F 30.05 in NNW 5.0 mph 5.0 mph 69% 0.00 in WeatherDisplay:10.37 W/m2 FEW
19:40 76.1 °F 65.6 °F 30.05 in NNW 5.0 mph 5.0 mph 70% 0.00 in WeatherDisplay:10.37 W/m2 FEW
19:45 75.8 °F 65.7 °F 30.05 in NNW 5.0 mph 5.0 mph 71% 0.00 in WeatherDisplay:10.37 W/m2 FEW
19:50 75.5 °F 65.4 °F 30.05 in NNW 5.0 mph 5.0 mph 71% 0.00 in WeatherDisplay:10.37 W/m2 FEW
19:55 75.2 °F 65.6 °F 30.05 in NNW 5.0 mph 5.0 mph 72% 0.00 in WeatherDisplay:10.37 W/m2 FEW
20:00 75.0 °F 65.7 °F 30.05 in NNW 5.0 mph 5.0 mph 73% 0.00 in WeatherDisplay:10.37 W/m2 FEW
20:10 74.4 °F 65.6 °F 30.05 in NNW 5.0 mph 5.0 mph 74% 0.00 in WeatherDisplay:10.37 W/m2 FEW
20:15 74.2 °F 65.7 °F 30.05 in NW 5.0 mph 5.0 mph 75% 0.00 in WeatherDisplay:10.37 W/m2 FEW
20:20 74.0 °F 65.6 °F 30.05 in WNW 5.0 mph 5.0 mph 75% 0.00 in WeatherDisplay:10.37 W/m2 FEW
20:25 74.0 °F 65.5 °F 30.05 in WNW 5.0 mph 5.0 mph 75% 0.00 in WeatherDisplay:10.37 W/m2 FEW
20:30 73.8 °F 65.4 °F 30.05 in WNW 5.0 mph 5.0 mph 75% 0.00 in WeatherDisplay:10.37 W/m2 FEW
20:35 73.8 °F 65.8 °F 30.05 in WNW 5.0 mph 5.0 mph 76% 0.00 in WeatherDisplay:10.37 W/m2 FEW
20:40 73.7 °F 65.3 °F 30.06 in WNW 5.0 mph 5.0 mph 75% 0.00 in WeatherDisplay:10.37 W/m2 FEW
20:45 73.7 °F 65.6 °F 30.06 in WNW 5.0 mph 5.0 mph 76% 0.00 in WeatherDisplay:10.37 W/m2 FEW
20:50 73.5 °F 65.5 °F 30.06 in WNW 5.0 mph 5.0 mph 76% 0.00 in WeatherDisplay:10.37 W/m2 FEW
20:55 73.5 °F 65.5 °F 30.06 in WNW 5.0 mph 5.0 mph 76% 0.00 in WeatherDisplay:10.37 W/m2 FEW
21:00 73.4 °F 65.0 °F 30.06 in WNW 5.0 mph 5.0 mph 75% 0.00 in WeatherDisplay:10.37 W/m2 FEW
21:10 73.5 °F 65.0 °F 30.06 in WNW 5.0 mph 5.0 mph 75% 0.00 in WeatherDisplay:10.37 W/m2 FEW
21:15 73.5 °F 64.7 °F 30.06 in WNW 5.0 mph 5.0 mph 74% 0.00 in WeatherDisplay:10.37 W/m2 CLR
21:20 73.6 °F 64.8 °F 30.06 in WNW 5.0 mph 5.0 mph 74% 0.00 in WeatherDisplay:10.37 W/m2 CLR
21:25 73.5 °F 64.7 °F 30.06 in WNW 5.0 mph 5.0 mph 74% 0.00 in WeatherDisplay:10.37 W/m2 CLR
21:30 73.4 °F 65.0 °F 30.06 in WNW 5.0 mph 5.0 mph 75% 0.00 in WeatherDisplay:10.37 W/m2 CLR
21:35 73.3 °F 64.9 °F 30.06 in WNW 5.0 mph 5.0 mph 75% 0.00 in WeatherDisplay:10.37 W/m2 CLR
21:40 73.1 °F 65.1 °F 30.06 in WNW 5.0 mph 5.0 mph 76% 0.00 in WeatherDisplay:10.37 W/m2 CLR
21:45 72.9 °F 64.9 °F 30.06 in WNW 5.0 mph 5.0 mph 76% 0.00 in WeatherDisplay:10.37 W/m2 CLR
21:50 72.9 °F 64.9 °F 30.06 in WNW 5.0 mph 5.0 mph 76% 0.00 in WeatherDisplay:10.37 W/m2 CLR
21:55 72.8 °F 65.2 °F 30.06 in WNW 5.0 mph 5.0 mph 77% 0.00 in WeatherDisplay:10.37 W/m2 CLR
22:00 72.6 °F 65.0 °F 30.07 in WNW 5.0 mph 5.0 mph 77% 0.00 in WeatherDisplay:10.37 W/m2 CLR
22:05 72.3 °F 64.7 °F 30.07 in WNW 5.0 mph 5.0 mph 77% 0.00 in WeatherDisplay:10.37 W/m2 CLR
22:10 72.1 °F 64.8 °F 30.07 in WNW 5.0 mph 5.0 mph 78% 0.00 in WeatherDisplay:10.37 W/m2 CLR
22:15 71.9 °F 64.7 °F 30.07 in WNW 5.0 mph 5.0 mph 78% 0.00 in WeatherDisplay:10.37 W/m2 CLR
22:20 72.0 °F 64.8 °F 30.07 in WNW 5.0 mph 5.0 mph 78% 0.00 in WeatherDisplay:10.37 W/m2 CLR
22:25 72.2 °F 64.9 °F 30.07 in WNW 5.0 mph 5.0 mph 78% 0.00 in WeatherDisplay:10.37 W/m2 CLR
22:30 72.2 °F 65.0 °F 30.07 in WNW 5.0 mph 5.0 mph 78% 0.00 in WeatherDisplay:10.37 W/m2 CLR
22:35 72.2 °F 65.0 °F 30.07 in WNW 5.0 mph 5.0 mph 78% 0.00 in WeatherDisplay:10.37 W/m2 CLR
22:40 72.2 °F 65.0 °F 30.07 in WNW 5.0 mph 5.0 mph 78% 0.00 in WeatherDisplay:10.37 W/m2 CLR
22:45 72.0 °F 65.1 °F 30.07 in WNW 5.0 mph 5.0 mph 79% 0.00 in WeatherDisplay:10.37 W/m2 CLR
22:50 71.7 °F 64.9 °F 30.07 in WNW 5.0 mph 5.0 mph 79% 0.00 in WeatherDisplay:10.37 W/m2 CLR
22:55 71.5 °F 65.0 °F 30.07 in WNW 5.0 mph 5.0 mph 80% 0.00 in WeatherDisplay:10.37 W/m2 CLR
23:00 71.2 °F 65.1 °F 30.07 in WNW 5.0 mph 5.0 mph 81% 0.00 in WeatherDisplay:10.37 W/m2 CLR
23:05 71.0 °F 64.9 °F 30.07 in WNW 5.0 mph 5.0 mph 81% 0.00 in WeatherDisplay:10.37 W/m2 CLR
23:10 70.7 °F 64.9 °F 30.07 in WNW 5.0 mph 5.0 mph 82% 0.00 in WeatherDisplay:10.37 W/m2 CLR
23:20 70.1 °F 64.7 °F 30.07 in WNW 5.0 mph 5.0 mph 83% 0.00 in WeatherDisplay:10.37 W/m2 CLR
23:25 69.8 °F 64.8 °F 30.07 in WNW 5.0 mph 5.0 mph 84% 0.00 in WeatherDisplay:10.37 W/m2 CLR
23:30 69.6 °F 64.5 °F 30.07 in WNW 5.0 mph 5.0 mph 84% 0.00 in WeatherDisplay:10.37 W/m2 CLR
23:40 69.1 °F 64.4 °F 30.07 in WNW 5.0 mph 5.0 mph 85% 0.00 in WeatherDisplay:10.37 W/m2 CLR
23:45 68.9 °F 64.5 °F 30.07 in WNW 5.0 mph 5.0 mph 86% 0.00 in WeatherDisplay:10.37 W/m2 CLR
23:50 68.7 °F 64.3 °F 30.07 in WNW 5.0 mph 5.0 mph 86% 0.00 in WeatherDisplay:10.37 W/m2 CLR
23:55 68.6 °F 64.2 °F 30.07 in WNW 5.0 mph 5.0 mph 86% 0.00 in WeatherDisplay:10.37 W/m2 CLR
Piedmont Bend
Compliments of Weather Underground - 4 mb